createdAt,value
2018-03-18T00:00:25.957Z,66.10
2018-03-18T00:02:53.455Z,66.00
2018-03-18T00:05:21.752Z,68.00
2018-03-18T00:07:49.241Z,68.00
2018-03-18T00:10:16.713Z,68.30
2018-03-18T00:12:44.217Z,68.50
2018-03-18T00:15:11.689Z,69.10
2018-03-18T00:17:39.209Z,69.70
2018-03-18T00:20:07.456Z,69.60
2018-03-18T00:22:34.943Z,69.50
2018-03-18T00:25:03.192Z,70.40
2018-03-18T00:27:30.712Z,70.30
2018-03-18T00:29:58.174Z,70.00
2018-03-18T00:32:25.656Z,70.20
2018-03-18T00:34:53.144Z,70.50
2018-03-18T00:37:21.397Z,70.80
2018-03-18T00:39:48.866Z,70.80
2018-03-18T00:42:17.174Z,71.50
2018-03-18T00:44:44.643Z,71.70
2018-03-18T00:47:12.115Z,71.90
2018-03-18T00:49:39.601Z,72.40
2018-03-18T00:52:07.089Z,72.00
2018-03-18T00:54:35.338Z,72.70
2018-03-18T00:57:02.815Z,72.60
2018-03-18T00:59:31.069Z,72.40
2018-03-18T01:01:58.537Z,72.40
2018-03-18T01:04:26.038Z,72.40
2018-03-18T01:06:53.500Z,71.70
2018-03-18T01:09:20.989Z,72.30
2018-03-18T01:11:48.453Z,71.80
2018-03-18T01:14:15.971Z,71.20
2018-03-18T01:16:43.445Z,71.20
2018-03-18T01:19:10.942Z,70.70
2018-03-18T01:21:38.429Z,70.40
2018-03-18T01:24:05.923Z,70.30
2018-03-18T01:26:33.384Z,69.60
2018-03-18T01:29:00.882Z,69.50
2018-03-18T01:31:29.149Z,69.30
2018-03-18T01:33:56.622Z,69.30
2018-03-18T01:36:24.884Z,69.30
2018-03-18T01:38:52.368Z,69.30
2018-03-18T01:41:19.857Z,70.10
2018-03-18T01:43:47.378Z,69.40
2018-03-18T01:46:15.635Z,70.00
2018-03-18T01:48:43.100Z,69.20
2018-03-18T01:51:11.384Z,68.80
2018-03-18T01:53:39.621Z,68.60
2018-03-18T01:56:07.124Z,68.60
2018-03-18T01:58:34.594Z,69.40
2018-03-18T02:01:02.117Z,69.80
2018-03-18T02:03:30.072Z,70.30
2018-03-18T02:05:57.713Z,71.10
2018-03-18T02:08:25.197Z,71.20
2018-03-18T02:10:52.693Z,71.90
2018-03-18T02:13:20.172Z,71.80
2018-03-18T02:15:47.653Z,72.70
2018-03-18T02:18:15.152Z,72.90
2018-03-18T02:20:43.395Z,73.20
2018-03-18T02:23:10.929Z,73.20
2018-03-18T02:25:42.721Z,73.80
2018-03-18T02:28:10.201Z,73.90
2018-03-18T02:30:38.439Z,74.30
2018-03-18T02:33:05.913Z,74.30
2018-03-18T02:35:33.388Z,74.60
2018-03-18T02:38:00.897Z,75.10
2018-03-18T02:40:28.437Z,74.10
2018-03-18T02:42:55.998Z,74.20
2018-03-18T02:45:23.474Z,74.20
2018-03-18T02:47:50.966Z,74.70
2018-03-18T02:50:18.533Z,74.90
2018-03-18T02:52:46.791Z,75.50
2018-03-18T02:55:14.272Z,75.50
2018-03-18T02:57:42.569Z,75.40
2018-03-18T03:00:10.045Z,75.30
2018-03-18T03:02:37.538Z,75.40
2018-03-18T03:05:05.030Z,74.60
2018-03-18T03:07:33.264Z,73.90
2018-03-18T03:10:00.752Z,73.90
2018-03-18T03:12:28.992Z,71.80
2018-03-18T03:14:56.485Z,71.90
2018-03-18T03:17:25.461Z,71.60
2018-03-18T03:19:52.937Z,71.50
2018-03-18T03:22:21.190Z,70.70
2018-03-18T03:24:48.689Z,70.80
2018-03-18T03:27:16.168Z,71.00
2018-03-18T03:29:43.665Z,70.30
2018-03-18T03:32:11.142Z,70.00
2018-03-18T03:34:39.408Z,71.00
2018-03-18T03:37:07.646Z,71.40
2018-03-18T03:39:35.134Z,71.40
2018-03-18T03:42:02.599Z,71.80
2018-03-18T03:44:30.902Z,72.80
2018-03-18T03:46:58.383Z,72.80
2018-03-18T03:49:25.877Z,73.10
2018-03-18T03:51:53.365Z,73.30
2018-03-18T03:54:20.830Z,73.50
2018-03-18T03:56:48.317Z,73.10
2018-03-18T03:59:15.782Z,73.50
2018-03-18T04:01:43.274Z,73.60
2018-03-18T04:04:11.509Z,74.50
2018-03-18T04:06:39.000Z,74.50
2018-03-18T04:09:06.473Z,74.40
2018-03-18T04:11:34.732Z,74.40
2018-03-18T04:14:02.205Z,74.40
2018-03-18T04:16:30.454Z,75.30
2018-03-18T04:18:57.925Z,75.20
2018-03-18T04:21:25.425Z,74.50
2018-03-18T04:23:52.896Z,74.50
2018-03-18T04:26:20.442Z,74.60
2018-03-18T04:28:47.921Z,75.20
2018-03-18T04:31:15.457Z,74.90
2018-03-18T04:33:42.941Z,75.20
2018-03-18T04:36:10.413Z,74.60
2018-03-18T04:38:37.898Z,75.00
2018-03-18T04:41:06.152Z,75.20
2018-03-18T04:43:33.633Z,75.10
2018-03-18T04:46:01.864Z,74.80
2018-03-18T04:48:29.353Z,74.80
2018-03-18T04:50:56.830Z,74.50
2018-03-18T04:53:25.078Z,74.40
2018-03-18T04:55:52.546Z,74.40
2018-03-18T04:58:20.796Z,75.00
2018-03-18T05:00:48.270Z,74.90
2018-03-18T05:03:15.752Z,75.30
2018-03-18T05:05:43.993Z,74.30
2018-03-18T05:08:11.480Z,74.30
2018-03-18T05:10:39.720Z,74.50
2018-03-18T05:13:07.209Z,74.50
2018-03-18T05:15:35.456Z,74.30
2018-03-18T05:18:02.949Z,74.20
2018-03-18T05:20:31.197Z,74.20
2018-03-18T05:22:58.685Z,74.20
2018-03-18T05:25:26.919Z,74.20
2018-03-18T05:27:54.435Z,74.20
2018-03-18T05:30:21.913Z,74.20
2018-03-18T05:32:49.376Z,74.90
2018-03-18T05:35:17.011Z,75.10
2018-03-18T05:37:44.474Z,75.30
2018-03-18T05:40:11.957Z,75.50
2018-03-18T05:42:39.428Z,75.40
2018-03-18T05:45:07.678Z,74.80
2018-03-18T05:47:35.146Z,74.90
2018-03-18T05:50:02.632Z,74.60
2018-03-18T05:52:30.120Z,74.00
2018-03-18T05:54:57.612Z,74.20
2018-03-18T05:57:25.145Z,74.10
2018-03-18T05:59:53.385Z,74.30
2018-03-18T06:02:21.612Z,75.10
2018-03-18T06:04:49.094Z,75.00
2018-03-18T06:07:16.576Z,75.30
2018-03-18T06:09:44.833Z,75.30
2018-03-18T06:12:12.303Z,75.30
2018-03-18T06:14:39.793Z,75.10
2018-03-18T06:17:07.275Z,75.60
2018-03-18T06:19:34.741Z,74.90
2018-03-18T06:22:02.244Z,74.00
2018-03-18T06:24:30.541Z,73.50
2018-03-18T06:26:58.038Z,73.40
2018-03-18T06:29:25.556Z,73.40
2018-03-18T06:31:53.801Z,73.70
2018-03-18T06:34:21.281Z,73.70
2018-03-18T06:36:49.554Z,73.50
2018-03-18T06:39:17.812Z,74.10
2018-03-18T06:41:46.060Z,72.00
2018-03-18T06:44:13.530Z,72.50
2018-03-18T06:46:41.026Z,72.40
2018-03-18T06:49:08.489Z,72.40
2018-03-18T06:51:35.993Z,72.30
2018-03-18T06:54:03.453Z,72.40
2018-03-18T06:56:32.462Z,72.90
2018-03-18T06:58:59.934Z,72.90
2018-03-18T07:01:28.173Z,72.50
2018-03-18T07:03:56.435Z,72.50
2018-03-18T07:06:23.906Z,72.60
2018-03-18T07:08:52.165Z,73.60
2018-03-18T07:11:19.649Z,73.10
2018-03-18T07:13:47.917Z,72.90
2018-03-18T07:16:16.165Z,71.20
2018-03-18T07:18:43.654Z,71.20
2018-03-18T07:21:11.133Z,71.30
2018-03-18T07:23:38.632Z,71.00
2018-03-18T07:26:06.101Z,70.80
2018-03-18T07:28:33.584Z,70.70
2018-03-18T07:31:01.060Z,69.70
2018-03-18T07:33:28.570Z,70.30
2018-03-18T07:35:56.043Z,70.20
2018-03-18T07:38:23.533Z,70.00
2018-03-18T07:40:51.018Z,71.60
2018-03-18T07:43:19.271Z,70.50
2018-03-18T07:45:46.745Z,70.50
2018-03-18T07:48:15.013Z,70.30
2018-03-18T07:50:43.253Z,70.30
2018-03-18T07:53:11.043Z,69.80
2018-03-18T07:55:39.307Z,69.20
2018-03-18T07:58:06.806Z,69.20
2018-03-18T08:00:34.381Z,70.00
2018-03-18T08:03:01.836Z,69.50
2018-03-18T08:05:29.324Z,69.20
2018-03-18T08:07:56.793Z,69.30
2018-03-18T08:10:24.276Z,68.80
2018-03-18T08:12:52.524Z,68.00
2018-03-18T08:15:20.008Z,67.80
2018-03-18T08:17:48.245Z,67.80
2018-03-18T08:20:15.744Z,67.60
2018-03-18T08:22:43.982Z,67.40
2018-03-18T08:25:11.477Z,67.30
2018-03-18T08:27:39.719Z,67.80
2018-03-18T08:30:07.225Z,67.70
2018-03-18T08:32:35.460Z,67.10
2018-03-18T08:35:02.947Z,67.00
2018-03-18T08:37:31.183Z,66.50
2018-03-18T08:39:58.681Z,66.50
2018-03-18T08:42:29.759Z,66.40
2018-03-18T08:44:57.237Z,66.40
2018-03-18T08:47:24.710Z,66.10
2018-03-18T08:49:52.398Z,66.20
2018-03-18T08:52:20.681Z,67.00
2018-03-18T08:54:48.122Z,66.90
2018-03-18T08:57:15.604Z,66.70
2018-03-18T08:59:43.084Z,67.40
2018-03-18T09:02:10.596Z,67.20
2018-03-18T09:04:38.061Z,67.80
2018-03-18T09:07:06.324Z,68.00
2018-03-18T09:09:33.806Z,68.00
2018-03-18T09:12:01.305Z,66.80
2018-03-18T09:14:28.772Z,66.80
2018-03-18T09:16:56.298Z,65.50
2018-03-18T09:19:24.546Z,65.90
2018-03-18T09:21:52.031Z,65.90
2018-03-18T09:24:19.491Z,65.90
2018-03-18T09:26:46.974Z,65.30
2018-03-18T09:29:14.444Z,65.30
2018-03-18T09:31:41.934Z,66.00
2018-03-18T09:34:10.177Z,65.20
2018-03-18T09:36:37.663Z,65.10
2018-03-18T09:39:05.929Z,65.20
2018-03-18T09:41:33.391Z,65.10
2018-03-18T09:44:01.691Z,64.40
2018-03-18T09:46:29.176Z,64.30
2018-03-18T09:48:56.694Z,63.80
2018-03-18T09:51:24.917Z,62.70
2018-03-18T09:53:52.401Z,62.60
2018-03-18T09:56:19.878Z,63.10
2018-03-18T09:58:48.140Z,62.50
2018-03-18T10:01:16.393Z,62.00
2018-03-18T10:03:43.907Z,61.90
2018-03-18T10:06:12.141Z,61.50
2018-03-18T10:08:39.649Z,61.40
2018-03-18T10:11:07.137Z,61.30
2018-03-18T10:13:34.616Z,61.50
2018-03-18T10:16:02.165Z,61.20
2018-03-18T10:18:29.645Z,61.00
2018-03-18T10:20:57.109Z,60.60
2018-03-18T10:23:25.347Z,60.00
2018-03-18T10:25:52.834Z,59.90
2018-03-18T10:28:20.296Z,60.40
2018-03-18T10:30:48.554Z,59.40
2018-03-18T10:33:16.020Z,59.40
2018-03-18T10:35:43.508Z,59.20
2018-03-18T10:38:10.981Z,59.30
2018-03-18T10:40:38.456Z,58.60
2018-03-18T10:43:05.925Z,58.20
2018-03-18T10:45:33.410Z,58.20
2018-03-18T10:48:00.881Z,57.30
2018-03-18T10:50:29.125Z,58.10
2018-03-18T10:52:56.615Z,58.10
2018-03-18T10:55:24.867Z,57.70
2018-03-18T10:57:53.105Z,58.10
2018-03-18T11:00:20.601Z,58.10
2018-03-18T11:02:50.896Z,57.50
2018-03-18T11:05:18.361Z,57.30
2018-03-18T11:07:45.846Z,57.50
2018-03-18T11:10:13.308Z,57.20
2018-03-18T11:12:41.582Z,57.20
2018-03-18T11:15:09.071Z,57.20
2018-03-18T11:17:36.554Z,56.80
2018-03-18T11:20:04.028Z,56.00
2018-03-18T11:22:31.520Z,54.90
2018-03-18T11:24:58.985Z,55.80
2018-03-18T11:27:26.477Z,56.40
2018-03-18T11:29:53.956Z,55.30
2018-03-18T11:32:21.474Z,53.50
2018-03-18T11:34:49.714Z,54.50
2018-03-18T11:37:17.201Z,54.40
2018-03-18T11:39:45.424Z,53.40
2018-03-18T11:42:12.921Z,53.30
2018-03-18T11:44:40.396Z,53.10
2018-03-18T11:47:08.642Z,53.50
2018-03-18T11:49:36.158Z,53.50
2018-03-18T11:52:04.374Z,52.80
2018-03-18T11:54:32.331Z,52.80
2018-03-18T11:56:59.818Z,51.80
2018-03-18T11:59:27.303Z,52.10
2018-03-18T12:01:54.788Z,51.00
2018-03-18T12:04:22.288Z,51.60
2018-03-18T12:06:50.533Z,51.80
2018-03-18T12:09:18.029Z,51.00
2018-03-18T12:11:46.268Z,50.30
2018-03-18T12:14:13.750Z,50.30
2018-03-18T12:16:41.226Z,50.90
2018-03-18T12:19:09.489Z,51.50
2018-03-18T12:21:36.953Z,51.50
2018-03-18T12:24:05.201Z,51.60
2018-03-18T12:26:32.667Z,51.50
2018-03-18T12:29:00.157Z,52.00
2018-03-18T12:31:28.443Z,51.70
2018-03-18T12:33:55.952Z,51.60
2018-03-18T12:36:23.424Z,52.20
2018-03-18T12:38:50.936Z,52.50
2018-03-18T12:41:18.426Z,53.10
2018-03-18T12:43:45.898Z,52.10
2018-03-18T12:46:13.370Z,52.00
2018-03-18T12:48:41.618Z,51.50
2018-03-18T12:51:09.096Z,51.40
2018-03-18T12:53:37.345Z,52.20
2018-03-18T12:56:04.865Z,52.10
2018-03-18T12:58:32.340Z,52.00
2018-03-18T13:00:59.831Z,51.90
2018-03-18T13:03:27.298Z,52.00
2018-03-18T13:05:55.550Z,51.80
2018-03-18T13:08:23.041Z,51.80
2018-03-18T13:10:51.289Z,51.60
2018-03-18T13:13:18.764Z,51.50
2018-03-18T13:15:46.255Z,51.90
2018-03-18T13:18:13.759Z,52.80
2018-03-18T13:20:41.256Z,51.50
2018-03-18T13:23:08.791Z,52.20
2018-03-18T13:25:36.300Z,52.40
2018-03-18T13:28:03.769Z,52.20
2018-03-18T13:30:31.262Z,52.30
2018-03-18T13:32:58.720Z,52.10
2018-03-18T13:35:26.991Z,52.10
2018-03-18T13:37:54.456Z,52.00
2018-03-18T13:40:22.804Z,52.00
2018-03-18T13:42:50.279Z,51.40
2018-03-18T13:45:17.747Z,51.70
2018-03-18T13:47:45.230Z,52.20
2018-03-18T13:50:12.780Z,52.20
2018-03-18T13:52:41.040Z,51.50
2018-03-18T13:55:08.510Z,51.40
2018-03-18T13:57:36.774Z,51.10
2018-03-18T14:00:05.117Z,50.70
2018-03-18T14:02:32.611Z,50.70
2018-03-18T14:05:00.895Z,49.60
2018-03-18T14:07:29.158Z,48.90
2018-03-18T14:09:56.625Z,48.80
2018-03-18T14:12:24.884Z,48.20
2018-03-18T14:14:52.361Z,48.20
2018-03-18T14:17:20.645Z,48.60
2018-03-18T14:19:48.144Z,48.50
2018-03-18T14:22:15.610Z,48.90
2018-03-18T14:24:43.115Z,48.60
2018-03-18T14:27:11.361Z,48.60
2018-03-18T14:29:38.867Z,48.60
2018-03-18T14:32:06.350Z,48.80
2018-03-18T14:34:33.860Z,49.90
2018-03-18T14:37:02.120Z,49.00
2018-03-18T14:39:29.618Z,48.90
2018-03-18T14:41:57.089Z,48.20
2018-03-18T14:44:24.576Z,48.40
2018-03-18T14:46:52.037Z,48.90
2018-03-18T14:49:19.529Z,48.10
2018-03-18T14:51:47.048Z,48.80
2018-03-18T14:54:14.540Z,48.20
2018-03-18T14:56:42.780Z,48.70
2018-03-18T14:59:10.268Z,48.60
2018-03-18T15:01:38.501Z,48.30
2018-03-18T15:04:05.979Z,48.30
2018-03-18T15:06:33.462Z,48.80
2018-03-18T15:09:02.708Z,49.00
2018-03-18T15:11:30.196Z,49.00
2018-03-18T15:13:57.699Z,49.10
2018-03-18T15:16:25.204Z,48.10
2018-03-18T15:18:52.676Z,48.70
2018-03-18T15:21:20.955Z,48.80
2018-03-18T15:23:49.201Z,49.30
2018-03-18T15:26:16.680Z,49.30
2018-03-18T15:28:44.131Z,49.00
2018-03-18T15:31:11.628Z,49.30
2018-03-18T15:33:39.094Z,49.00
2018-03-18T15:36:06.585Z,49.50
2018-03-18T15:38:34.079Z,50.00
2018-03-18T15:41:02.344Z,49.70
2018-03-18T15:43:29.824Z,49.70
2018-03-18T15:45:58.076Z,49.60
2018-03-18T15:48:25.552Z,49.50
2018-03-18T15:50:53.805Z,50.20
2018-03-18T15:53:21.267Z,50.20
2018-03-18T15:55:48.731Z,49.60
2018-03-18T15:58:16.984Z,51.20
2018-03-18T16:00:44.470Z,50.40
2018-03-18T16:03:11.968Z,49.50
2018-03-18T16:05:39.462Z,50.00
2018-03-18T16:08:06.953Z,50.20
2018-03-18T16:10:35.209Z,50.10
2018-03-18T16:13:03.473Z,50.20
2018-03-18T16:15:31.717Z,50.90
2018-03-18T16:17:59.254Z,50.20
2018-03-18T16:20:26.730Z,50.20
2018-03-18T16:22:54.241Z,50.40
2018-03-18T16:25:21.791Z,50.60
2018-03-18T16:27:49.343Z,50.40
2018-03-18T16:30:28.673Z,51.00
2018-03-18T16:32:56.142Z,50.90
2018-03-18T16:35:23.644Z,51.60
2018-03-18T16:37:51.146Z,51.30
2018-03-18T16:40:18.770Z,51.40
2018-03-18T16:42:46.262Z,50.80
2018-03-18T16:45:13.742Z,50.20
2018-03-18T16:47:41.294Z,50.50
2018-03-18T16:50:08.809Z,50.50
2018-03-18T16:52:36.343Z,50.30
2018-03-18T16:55:03.828Z,50.20
2018-03-18T16:57:31.388Z,50.70
2018-03-18T16:59:58.892Z,50.60
2018-03-18T17:02:26.374Z,50.90
2018-03-18T17:04:53.907Z,51.00
2018-03-18T17:07:22.195Z,51.40
2018-03-18T17:09:50.466Z,51.20
2018-03-18T17:12:17.942Z,51.10
2018-03-18T17:14:45.433Z,51.30
2018-03-18T17:17:12.913Z,51.20
2018-03-18T17:19:40.399Z,50.60
2018-03-18T17:22:07.912Z,51.20
2018-03-18T17:24:35.422Z,51.30
2018-03-18T17:27:02.929Z,51.30
2018-03-18T17:29:30.417Z,50.80
2018-03-18T17:31:57.922Z,51.00
2018-03-18T17:34:25.377Z,51.10
2018-03-18T17:36:52.878Z,51.70
2018-03-18T17:39:20.442Z,51.90
2018-03-18T17:41:48.004Z,51.50
2018-03-18T17:44:28.091Z,52.30
2018-03-18T17:47:07.630Z,51.60
2018-03-18T17:49:46.965Z,51.00
2018-03-18T17:52:26.288Z,51.40
2018-03-18T17:55:05.491Z,51.60
2018-03-18T17:57:33.785Z,50.70
2018-03-18T18:00:02.032Z,50.90
2018-03-18T18:02:29.556Z,50.80
2018-03-18T18:04:57.055Z,51.30
2018-03-18T18:07:24.567Z,51.50
2018-03-18T18:09:52.040Z,50.90
2018-03-18T18:12:19.539Z,51.30
2018-03-18T18:14:47.070Z,51.50
2018-03-18T18:17:14.559Z,51.60
2018-03-18T18:19:42.067Z,51.50
2018-03-18T18:22:09.538Z,51.40
2018-03-18T18:24:37.074Z,51.50
2018-03-18T18:27:04.578Z,51.30
2018-03-18T18:29:32.868Z,51.40
2018-03-18T18:32:00.333Z,51.30
2018-03-18T18:34:28.602Z,51.40
2018-03-18T18:36:56.860Z,51.80
2018-03-18T18:39:24.359Z,51.70
2018-03-18T18:41:51.920Z,51.80
2018-03-18T18:44:19.396Z,52.00
2018-03-18T18:46:46.892Z,52.20
2018-03-18T18:49:14.392Z,52.30
2018-03-18T18:51:41.869Z,52.00
2018-03-18T18:54:09.424Z,52.30
2018-03-18T18:56:36.968Z,52.50
2018-03-18T18:59:04.430Z,52.70
2018-03-18T19:01:31.940Z,53.40
2018-03-18T19:03:59.432Z,53.80
2018-03-18T19:06:28.504Z,54.30
2018-03-18T19:08:55.993Z,54.20
2018-03-18T19:11:23.452Z,54.20
2018-03-18T19:13:51.006Z,54.80
2018-03-18T19:16:18.500Z,54.90
2018-03-18T19:18:46.013Z,54.90
2018-03-18T19:21:13.498Z,54.90
2018-03-18T19:23:40.996Z,54.90
2018-03-18T19:26:08.801Z,54.90
2018-03-18T19:28:36.297Z,54.80
2018-03-18T19:31:03.789Z,54.80
2018-03-18T19:33:32.066Z,54.90
2018-03-18T19:36:00.347Z,55.20
2018-03-18T19:38:29.877Z,55.10
2018-03-18T19:40:57.382Z,55.40
2018-03-18T19:43:24.866Z,54.70
2018-03-18T19:45:53.136Z,54.90
2018-03-18T19:48:20.657Z,54.80
2018-03-18T19:50:48.119Z,55.20
2018-03-18T19:53:15.596Z,55.60
2018-03-18T19:55:43.105Z,55.80
2018-03-18T19:58:10.580Z,55.10
2018-03-18T20:00:38.082Z,55.40
2018-03-18T20:03:05.560Z,55.40
2018-03-18T20:05:33.058Z,55.70
2018-03-18T20:08:00.587Z,55.60
2018-03-18T20:10:28.838Z,56.10
2018-03-18T20:12:56.338Z,56.00
2018-03-18T20:15:23.889Z,56.10
2018-03-18T20:17:51.367Z,56.10
2018-03-18T20:20:18.908Z,55.90
2018-03-18T20:22:46.393Z,55.90
2018-03-18T20:25:13.941Z,56.00
2018-03-18T20:27:41.478Z,56.30
2018-03-18T20:30:09.007Z,56.20
2018-03-18T20:32:37.260Z,55.80
2018-03-18T20:35:04.759Z,55.70
2018-03-18T20:37:32.221Z,56.00
2018-03-18T20:39:59.697Z,56.50
2018-03-18T20:42:27.204Z,56.50
2018-03-18T20:44:55.480Z,55.90
2018-03-18T20:47:24.601Z,55.80
2018-03-18T20:49:52.120Z,55.80
2018-03-18T20:52:28.382Z,56.20
2018-03-18T20:54:55.873Z,56.20
2018-03-18T20:57:23.386Z,56.10
2018-03-18T20:59:50.846Z,55.80
2018-03-18T21:02:18.365Z,55.80
2018-03-18T21:04:45.833Z,55.70
2018-03-18T21:07:13.340Z,55.50
2018-03-18T21:09:40.800Z,55.00
2018-03-18T21:12:08.322Z,55.10
2018-03-18T21:14:35.796Z,55.10
2018-03-18T21:17:03.292Z,54.50
2018-03-18T21:19:30.790Z,54.50
2018-03-18T21:21:58.293Z,54.20
2018-03-18T21:24:26.565Z,54.20
2018-03-18T21:26:54.829Z,53.50
2018-03-18T21:29:22.301Z,53.40
2018-03-18T21:31:50.559Z,53.50
2018-03-18T21:34:18.051Z,53.40
2018-03-18T21:36:46.304Z,53.20
2018-03-18T21:39:13.771Z,53.10
2018-03-18T21:41:42.254Z,53.30
2018-03-18T21:44:10.505Z,53.00
2018-03-18T21:46:37.969Z,53.00
2018-03-18T21:49:05.484Z,52.80
2018-03-18T21:51:33.024Z,52.70
2018-03-18T21:54:00.529Z,52.80
2018-03-18T21:56:28.014Z,52.90
2018-03-18T21:58:55.525Z,53.10
2018-03-18T22:01:23.004Z,53.40
2018-03-18T22:03:50.497Z,53.10
2018-03-18T22:06:18.744Z,53.30
2018-03-18T22:08:46.246Z,53.20
2018-03-18T22:11:13.717Z,53.30
2018-03-18T22:13:41.208Z,53.60
2018-03-18T22:16:08.675Z,53.30
2018-03-18T22:18:36.950Z,53.90
2018-03-18T22:21:04.425Z,53.90
2018-03-18T22:23:32.889Z,54.10
2018-03-18T22:26:00.400Z,53.90
2018-03-18T22:28:27.895Z,53.90
2018-03-18T22:30:55.366Z,53.80
2018-03-18T22:33:22.852Z,53.90
2018-03-18T22:35:51.085Z,54.00
2018-03-18T22:38:18.614Z,54.00
2018-03-18T22:40:46.095Z,53.80
2018-03-18T22:45:47.448Z,54.10
2018-03-18T22:48:14.926Z,54.40
2018-03-18T22:50:42.400Z,54.40
2018-03-18T22:53:09.874Z,54.40
2018-03-18T22:55:38.125Z,54.40
2018-03-18T22:58:05.606Z,54.40
2018-03-18T23:00:33.849Z,55.50
2018-03-18T23:03:01.315Z,55.40
2018-03-18T23:05:28.802Z,55.30
2018-03-18T23:07:56.291Z,55.40
2018-03-18T23:10:23.789Z,55.50
2018-03-18T23:12:51.266Z,55.90
2018-03-18T23:15:18.753Z,56.20
2018-03-18T23:18:01.099Z,56.10
2018-03-18T23:20:29.361Z,56.60
2018-03-18T23:22:57.601Z,56.60
2018-03-18T23:25:25.094Z,56.50
2018-03-18T23:27:53.341Z,56.70
2018-03-18T23:30:20.843Z,56.70
2018-03-18T23:32:49.129Z,56.70
2018-03-18T23:35:16.593Z,56.60
2018-03-18T23:37:44.086Z,56.70
2018-03-18T23:40:11.564Z,56.70
2018-03-18T23:42:39.170Z,56.70
2018-03-18T23:45:06.566Z,56.70
2018-03-18T23:47:34.058Z,56.60
2018-03-18T23:50:01.536Z,56.60
2018-03-18T23:52:29.026Z,57.00
2018-03-18T23:54:56.496Z,57.20
2018-03-18T23:57:23.964Z,56.90
2018-03-18T23:59:52.941Z,57.00
